createdAt,value
2022-09-20T00:04:42.926Z,99636.77
2022-09-20T00:09:45.602Z,99638.44
2022-09-20T00:14:48.300Z,99638.38
2022-09-20T00:19:50.999Z,99637.23
2022-09-20T00:24:53.696Z,99640.54
2022-09-20T00:29:56.710Z,99646.41
2022-09-20T00:35:08.624Z,99650.21
2022-09-20T00:40:14.989Z,99654.30
2022-09-20T00:45:22.928Z,99657.27
2022-09-20T00:50:44.164Z,99656.60
2022-09-20T00:56:10.310Z,99657.77
2022-09-20T01:01:13.851Z,99662.38
2022-09-20T01:06:17.244Z,99667.44
2022-09-20T01:11:20.047Z,99668.60
2022-09-20T01:16:24.097Z,99667.09
2022-09-20T01:21:27.697Z,99668.29
2022-09-20T01:26:45.245Z,99670.56
2022-09-20T01:31:52.914Z,99679.52
2022-09-20T01:37:04.980Z,99683.48
2022-09-20T01:42:15.668Z,99678.52
2022-09-20T01:47:30.386Z,99673.40
2022-09-20T01:52:36.119Z,99672.35
2022-09-20T01:57:39.227Z,99670.88
2022-09-20T02:02:53.033Z,99670.11
2022-09-20T02:07:55.687Z,99667.81
2022-09-20T02:13:04.227Z,99673.95
2022-09-20T02:18:30.065Z,99677.22
2022-09-20T02:23:41.953Z,99679.73
2022-09-20T02:28:56.456Z,99682.31
2022-09-20T02:34:18.099Z,99682.80
2022-09-20T02:39:22.746Z,99687.64
2022-09-20T02:44:44.082Z,99693.83
2022-09-20T02:49:52.617Z,99693.31
2022-09-20T02:55:01.377Z,99695.10
2022-09-20T03:00:04.056Z,99701.20
2022-09-20T03:05:06.758Z,99701.98
2022-09-20T03:10:27.095Z,99705.87
2022-09-20T03:15:48.305Z,99711.92
2022-09-20T03:21:06.369Z,99715.96
2022-09-20T03:26:28.009Z,99715.43
2022-09-20T03:31:31.154Z,99719.70
2022-09-20T03:36:33.917Z,99729.88
2022-09-20T03:41:48.700Z,99731.08
2022-09-20T03:46:58.259Z,99733.70
2022-09-20T03:52:06.693Z,99742.48
2022-09-20T03:57:21.580Z,99744.35
2022-09-20T04:02:40.861Z,99747.78
2022-09-20T04:07:52.681Z,99746.99
2022-09-20T04:12:55.379Z,99751.52
2022-09-20T04:18:04.340Z,99756.09
2022-09-20T04:23:22.181Z,99761.15
2022-09-20T04:28:48.031Z,99761.31
2022-09-20T04:33:52.158Z,99762.18
2022-09-20T04:39:03.226Z,99766.06
2022-09-20T04:44:06.540Z,99769.35
2022-09-20T04:49:20.121Z,99771.90
2022-09-20T04:54:41.763Z,99771.64
2022-09-20T04:59:59.315Z,99779.70
2022-09-20T05:05:05.083Z,99786.61
2022-09-20T05:10:10.854Z,99793.35
2022-09-20T05:15:16.830Z,99801.48
2022-09-20T05:20:38.274Z,99806.67
2022-09-20T05:25:52.238Z,99813.80
2022-09-20T05:31:00.460Z,99818.73
2022-09-20T05:36:12.478Z,99818.98
2022-09-20T05:41:24.602Z,99817.45
2022-09-20T05:46:36.419Z,99820.64
2022-09-20T05:51:48.535Z,99825.10
2022-09-20T05:56:54.304Z,99826.70
2022-09-20T06:02:17.412Z,99837.60
2022-09-20T06:07:39.536Z,99837.02
2022-09-20T06:12:45.002Z,99838.39
2022-09-20T06:17:59.992Z,99842.84
2022-09-20T06:23:04.736Z,99845.52
2022-09-20T06:28:18.393Z,99849.88
2022-09-20T06:33:22.525Z,99857.39
2022-09-20T06:38:55.895Z,99857.58
2022-09-20T06:43:59.976Z,99860.55
2022-09-20T06:49:08.451Z,99863.11
2022-09-20T06:54:14.694Z,99868.27
2022-09-20T06:59:17.703Z,99878.08
2022-09-20T07:04:22.416Z,99883.65
2022-09-20T07:09:25.147Z,99886.39
2022-09-20T07:14:27.849Z,99891.73
2022-09-20T07:19:30.545Z,99895.83
2022-09-20T07:24:33.244Z,99897.27
2022-09-20T07:29:36.665Z,99903.40
2022-09-20T07:34:39.465Z,99909.11
2022-09-20T07:39:42.288Z,99916.61
2022-09-20T07:44:45.067Z,99914.77
2022-09-20T07:49:47.766Z,99915.30
2022-09-20T07:54:50.467Z,99916.51
2022-09-20T07:59:53.268Z,99918.33
2022-09-20T08:04:56.084Z,99918.52
2022-09-20T08:10:00.006Z,99917.33
2022-09-20T08:15:02.823Z,99919.66
2022-09-20T08:20:06.654Z,99922.98
2022-09-20T08:25:09.743Z,99924.64
2022-09-20T08:30:12.434Z,99930.13
2022-09-20T08:35:15.469Z,99933.55
2022-09-20T08:40:18.571Z,99938.80
2022-09-20T08:45:33.837Z,99937.86
2022-09-20T08:50:37.986Z,99936.20
2022-09-20T08:55:42.834Z,99939.83
2022-09-20T09:00:47.138Z,99940.56
2022-09-20T09:05:52.022Z,99943.30
2022-09-20T09:10:57.173Z,99938.89
2022-09-20T09:16:07.666Z,99944.68
2022-09-20T09:21:17.626Z,99948.96
2022-09-20T09:26:23.533Z,99942.46
2022-09-20T09:31:26.561Z,99939.91
2022-09-20T09:36:29.687Z,99932.69
2022-09-20T09:41:35.492Z,99933.38
2022-09-20T09:46:40.342Z,99936.02
2022-09-20T09:52:16.026Z,99934.83
2022-09-20T09:57:45.848Z,99928.48
2022-09-20T10:03:14.865Z,99934.42
2022-09-20T10:08:17.563Z,99930.44
2022-09-20T10:13:40.266Z,99932.29
2022-09-20T10:18:44.060Z,99935.10
2022-09-20T10:24:09.807Z,99929.69
2022-09-20T10:29:20.077Z,99918.39
2022-09-20T10:34:26.052Z,99917.55
2022-09-20T10:39:33.770Z,99923.46
2022-09-20T10:44:46.913Z,99928.80
2022-09-20T10:49:50.886Z,99943.26
2022-09-20T10:54:56.614Z,99946.45
2022-09-20T11:00:22.473Z,99948.08
2022-09-20T11:05:25.258Z,99941.88
2022-09-20T11:10:28.848Z,99939.33
2022-09-20T11:15:43.764Z,99941.16
2022-09-20T11:20:51.076Z,99943.69
2022-09-20T11:25:56.647Z,99950.52
2022-09-20T11:31:05.586Z,99953.70
2022-09-20T11:36:11.257Z,99962.46
2022-09-20T11:41:30.542Z,99971.48
2022-09-20T11:46:36.110Z,99975.65
2022-09-20T11:51:57.445Z,99978.52
2022-09-20T11:57:00.755Z,99983.14
2022-09-20T12:02:06.292Z,99986.56
2022-09-20T12:07:20.597Z,99988.34
2022-09-20T12:12:40.110Z,99983.09
2022-09-20T12:18:08.190Z,99979.29
2022-09-20T12:23:31.820Z,99983.52
2022-09-20T12:28:34.580Z,99990.75
2022-09-20T12:33:55.917Z,99986.88
2022-09-20T12:39:19.075Z,99986.46
2022-09-20T12:44:33.774Z,99990.40
2022-09-20T12:50:04.640Z,99988.99
2022-09-20T12:55:11.272Z,99991.05
2022-09-20T13:00:28.538Z,99993.51
2022-09-20T13:05:32.587Z,99994.28
2022-09-20T13:10:37.665Z,99991.55
2022-09-20T13:15:41.070Z,99989.49
2022-09-20T13:20:45.715Z,99999.15
2022-09-20T13:25:48.722Z,100000.95
2022-09-20T13:31:11.462Z,100000.27
2022-09-20T13:36:14.727Z,100002.16
2022-09-20T13:41:17.474Z,100004.29
2022-09-20T13:46:28.608Z,100006.50
2022-09-20T13:51:34.880Z,100003.00
2022-09-20T13:56:38.044Z,100003.64
2022-09-20T14:01:44.525Z,100004.20
2022-09-20T14:06:48.209Z,100011.63
2022-09-20T14:11:51.110Z,100014.28
2022-09-20T14:16:56.655Z,100015.65
2022-09-20T14:22:02.761Z,100024.45
2022-09-20T14:27:13.866Z,100032.38
2022-09-20T14:32:19.322Z,100040.11
2022-09-20T14:37:55.200Z,100041.25
2022-09-20T14:43:01.275Z,100040.55
2022-09-20T14:48:11.393Z,100045.95
2022-09-20T14:53:26.777Z,100047.41
2022-09-20T14:58:29.749Z,100046.11
2022-09-20T15:03:42.268Z,100048.84
2022-09-20T15:08:46.891Z,100048.46
2022-09-20T15:13:49.730Z,100047.95
2022-09-20T15:18:52.631Z,100054.47
2022-09-20T15:23:55.448Z,100056.27
2022-09-20T15:28:58.233Z,100059.61
2022-09-20T15:34:00.948Z,100061.79
2022-09-20T15:39:03.735Z,100067.27
2022-09-20T15:44:07.255Z,100068.61
2022-09-20T15:49:12.002Z,100078.73
2022-09-20T15:54:15.114Z,100081.92
2022-09-20T15:59:19.346Z,100080.44
2022-09-20T16:04:22.481Z,100084.33
2022-09-20T16:09:25.260Z,100090.69
2022-09-20T16:14:28.161Z,100092.67
2022-09-20T16:19:30.964Z,100093.02
2022-09-20T16:24:35.014Z,100098.98
2022-09-20T16:29:37.795Z,100102.14
2022-09-20T16:34:40.498Z,100110.99
2022-09-20T16:39:44.530Z,100112.32
2022-09-20T16:44:47.636Z,100116.44
2022-09-20T16:49:50.991Z,100124.24
2022-09-20T16:54:53.753Z,100133.59
2022-09-20T16:59:56.554Z,100146.61
2022-09-20T17:04:59.367Z,100155.45
2022-09-20T17:10:02.667Z,100158.97
2022-09-20T17:15:06.353Z,100165.23
2022-09-20T17:20:09.193Z,100172.06
2022-09-20T17:25:12.302Z,100176.46
2022-09-20T17:30:15.105Z,100181.77
2022-09-20T17:35:18.726Z,100183.55
2022-09-20T17:40:21.701Z,100180.42
2022-09-20T17:45:24.433Z,100179.26
2022-09-20T17:50:27.336Z,100181.48
2022-09-20T17:55:29.968Z,100190.10
2022-09-20T18:00:32.730Z,100193.09
2022-09-20T18:05:35.844Z,100202.42
2022-09-20T18:10:38.646Z,100204.33
2022-09-20T18:15:45.339Z,100205.46
2022-09-20T18:20:48.856Z,100206.41
2022-09-20T18:26:10.296Z,100211.64
2022-09-20T18:31:13.056Z,100224.70
2022-09-20T18:36:17.130Z,100223.40
2022-09-20T18:41:21.775Z,100222.45
2022-09-20T18:46:25.427Z,100229.14
2022-09-20T18:51:33.039Z,100231.71
2022-09-20T18:56:39.909Z,100233.37
2022-09-20T19:01:45.464Z,100235.81
2022-09-20T19:06:52.268Z,100241.38
2022-09-20T19:12:03.058Z,100249.20
2022-09-20T19:17:08.524Z,100253.81
2022-09-20T19:22:14.294Z,100256.77
2022-09-20T19:27:17.372Z,100259.75
2022-09-20T19:32:24.506Z,100263.34
2022-09-20T19:37:36.830Z,100270.23
2022-09-20T19:42:49.356Z,100271.35
2022-09-20T19:47:59.551Z,100275.08
2022-09-20T19:53:05.796Z,100278.85
2022-09-20T19:58:09.193Z,100282.34
2022-09-20T20:03:13.136Z,100286.46
2022-09-20T20:08:37.112Z,100285.23
2022-09-20T20:14:07.155Z,100287.70
2022-09-20T20:19:16.662Z,100295.79
2022-09-20T20:24:46.600Z,100300.23
2022-09-20T20:29:49.920Z,100302.02
2022-09-20T20:34:52.715Z,100303.77
2022-09-20T20:39:55.414Z,100306.36
2022-09-20T20:44:59.037Z,100307.74
2022-09-20T20:50:01.734Z,100313.91
2022-09-20T20:55:04.638Z,100315.14
2022-09-20T21:00:07.987Z,100319.75
2022-09-20T21:05:10.755Z,100322.38
2022-09-20T21:10:14.272Z,100326.19
2022-09-20T21:15:18.405Z,100331.92
2022-09-20T21:20:22.340Z,100336.11
2022-09-20T21:25:25.032Z,100332.20
2022-09-20T21:30:27.733Z,100334.40
2022-09-20T21:35:30.951Z,100330.85
2022-09-20T21:40:33.711Z,100333.04
2022-09-20T21:45:39.107Z,100334.87
2022-09-20T21:50:41.709Z,100337.89
2022-09-20T21:55:44.506Z,100340.42
2022-09-20T22:00:55.909Z,100343.95
2022-09-20T22:06:04.628Z,100345.85
2022-09-20T22:11:11.158Z,100344.06
2022-09-20T22:16:19.061Z,100349.23
2022-09-20T22:21:23.808Z,100349.41
2022-09-20T22:26:30.708Z,100354.10
2022-09-20T22:31:34.642Z,100356.13
2022-09-20T22:36:39.418Z,100363.19
2022-09-20T22:41:42.912Z,100369.35
2022-09-20T22:46:45.807Z,100374.08
2022-09-20T22:51:48.520Z,100372.14
2022-09-20T22:56:51.306Z,100374.94
2022-09-20T23:01:54.025Z,100368.56
2022-09-20T23:06:56.705Z,100368.63
2022-09-20T23:11:59.506Z,100369.88
2022-09-20T23:17:02.512Z,100372.75
2022-09-20T23:22:05.217Z,100372.52
2022-09-20T23:27:08.018Z,100373.80
2022-09-20T23:32:10.716Z,100373.80
2022-09-20T23:37:13.821Z,100375.86
2022-09-20T23:42:16.521Z,100376.77
2022-09-20T23:47:19.322Z,100375.56
2022-09-20T23:52:22.024Z,100378.56
2022-09-20T23:57:24.721Z,100384.27
